Time;durP1;ratioP1;P1;durP2;ratioP2;P2;SDS_P1;SDS_P2;PMS_P1;PMS_P2;Temp;Humidity;BMP_temperature;BMP_pressure;BME280_temperature;BME280_humidity;BME280_pressure;Samples;Min_cycle;Max_cycle;Signal;HPM_P1;HPM_P2
2022/12/26 00:01:39;;;;;;;5.68;2.80;;;;;;;12.27;nan;100376.09;4975208;28;20509;-85
2022/12/26 00:04:05;;;;;;;4.70;2.80;;;;;;;12.32;nan;100376.41;4972153;28;20424;-85
2022/12/26 00:06:31;;;;;;;3.75;2.70;;;;;;;12.42;nan;100378.88;4974929;28;20034;-85
2022/12/26 00:08:58;;;;;;;4.55;2.53;;;;;;;12.46;nan;100367.78;4970426;28;20027;-86
2022/12/26 00:11:23;;;;;;;3.42;2.28;;;;;;;12.44;nan;100376.91;4956620;28;20039;-85
2022/12/26 00:13:54;;;;;;;3.75;2.63;;;;;;;12.50;nan;100355.84;4960531;28;20034;-86
2022/12/26 00:16:20;;;;;;;4.88;2.42;;;;;;;12.58;nan;100351.53;4974861;28;20075;-85
2022/12/26 00:18:46;;;;;;;4.53;2.70;;;;;;;12.56;nan;100345.56;4971677;28;20039;-85
2022/12/26 00:21:13;;;;;;;4.75;2.72;;;;;;;12.56;nan;100343.75;4974588;28;20063;-85
2022/12/26 00:23:39;;;;;;;3.85;2.70;;;;;;;12.54;nan;100340.44;4973177;28;20031;-85
2022/12/26 00:26:15;;;;;;;3.85;2.67;;;;;;;12.49;nan;100356.03;4973357;28;20046;-85
2022/12/26 00:28:42;;;;;;;3.92;2.50;;;;;;;12.49;nan;100353.38;4974607;28;20121;-86
2022/12/26 00:31:14;;;;;;;3.70;2.30;;;;;;;12.47;nan;100345.59;4974595;28;20027;-85
2022/12/26 00:33:39;;;;;;;4.30;2.42;;;;;;;12.44;nan;100345.94;4974735;28;20038;-87
2022/12/26 00:36:14;;;;;;;5.10;2.60;;;;;;;12.46;nan;100337.78;4974634;28;20027;-85
2022/12/26 00:38:41;;;;;;;4.65;2.50;;;;;;;12.43;nan;100338.13;4973291;28;20050;-86
2022/12/26 00:41:07;;;;;;;3.85;2.45;;;;;;;12.37;nan;100354.69;4974500;28;20611;-85
2022/12/26 00:43:33;;;;;;;3.72;2.72;;;;;;;12.37;nan;100360.84;4975012;28;20027;-85
2022/12/26 00:45:59;;;;;;;4.25;2.88;;;;;;;12.40;nan;100362.34;4973836;28;20419;-85
2022/12/26 00:48:24;;;;;;;4.05;2.65;;;;;;;12.44;nan;100366.28;4973365;28;20102;-86
2022/12/26 00:50:50;;;;;;;4.38;2.80;;;;;;;12.43;nan;100359.34;4974317;28;20590;-85
2022/12/26 00:53:15;;;;;;;4.38;2.92;;;;;;;12.42;nan;100352.38;4975168;28;20448;-86
2022/12/26 00:55:41;;;;;;;3.80;2.40;;;;;;;12.37;nan;100357.34;4975796;28;20035;-85
2022/12/26 00:58:06;;;;;;;4.45;2.70;;;;;;;12.33;nan;100365.66;4972213;28;20046;-86
2022/12/26 01:00:31;;;;;;;4.05;2.55;;;;;;;12.31;nan;100367.63;4972520;28;20480;-86
2022/12/26 01:02:57;;;;;;;5.35;3.00;;;;;;;12.29;nan;100369.63;4972979;28;20122;-85
2022/12/26 01:05:22;;;;;;;3.88;2.63;;;;;;;12.26;nan;100375.28;4974265;28;20061;-86
2022/12/26 01:07:47;;;;;;;5.57;2.88;;;;;;;12.25;nan;100364.81;4973463;28;20063;-85
2022/12/26 01:10:13;;;;;;;4.25;2.45;;;;;;;12.24;nan;100364.00;4974163;28;20122;-86
2022/12/26 01:12:39;;;;;;;4.18;2.88;;;;;;;12.23;nan;100358.88;4960770;28;20039;-86
2022/12/26 01:15:05;;;;;;;6.47;2.80;;;;;;;12.25;nan;100365.66;4966292;28;20043;-85
2022/12/26 01:17:31;;;;;;;3.95;2.70;;;;;;;12.24;nan;100348.09;4975355;28;20058;-86
2022/12/26 01:19:56;;;;;;;3.40;2.38;;;;;;;12.27;nan;100349.56;4974821;28;20038;-86
2022/12/26 01:22:23;;;;;;;5.85;2.80;;;;;;;12.23;nan;100348.28;4972277;28;20061;-86
2022/12/26 01:24:48;;;;;;;5.80;2.88;;;;;;;12.22;nan;100352.72;4974123;28;20029;-86
2022/12/26 01:27:13;;;;;;;4.63;3.05;;;;;;;12.21;nan;100347.63;4992513;28;20030;-85
2022/12/26 01:29:38;;;;;;;4.18;2.80;;;;;;;12.19;nan;100358.38;4972311;28;20129;-86
2022/12/26 01:32:04;;;;;;;4.15;2.70;;;;;;;12.20;nan;100357.38;4971530;28;20035;-86
2022/12/26 01:34:30;;;;;;;6.88;3.00;;;;;;;12.21;nan;100350.25;4972002;28;20034;-86
2022/12/26 01:36:55;;;;;;;4.13;2.85;;;;;;;12.22;nan;100362.50;4972747;28;20553;-86
2022/12/26 01:39:21;;;;;;;4.03;2.60;;;;;;;12.19;nan;100368.97;4985705;28;20511;-85
2022/12/26 01:41:47;;;;;;;4.65;2.75;;;;;;;12.19;nan;100376.94;4972318;28;20034;-86
2022/12/26 01:44:49;;;;;;;4.65;2.50;;;;;;;12.22;nan;100386.38;4971618;28;20030;-86
2022/12/26 01:47:16;;;;;;;5.13;3.00;;;;;;;12.23;nan;100390.69;4952038;28;20179;-86
2022/12/26 01:49:46;;;;;;;4.30;2.80;;;;;;;12.22;nan;100404.94;4964159;28;20027;-85
2022/12/26 01:52:20;;;;;;;4.50;2.42;;;;;;;12.22;nan;100399.63;4963181;28;20434;-86
2022/12/26 01:54:49;;;;;;;4.50;2.70;;;;;;;12.19;nan;100384.06;4963014;28;20031;-85
2022/12/26 01:57:25;;;;;;;5.20;2.83;;;;;;;12.13;nan;100374.94;4967401;28;20440;-87
2022/12/26 01:59:51;;;;;;;3.90;2.70;;;;;;;12.13;nan;100387.34;4970557;28;20404;-84
2022/12/26 02:02:19;;;;;;;4.47;2.72;;;;;;;12.07;nan;100380.91;4969378;28;20039;-86
2022/12/26 02:07:35;;;;;;;5.25;2.80;;;;;;;12.03;nan;100366.31;4960502;28;20041;-85
2022/12/26 02:10:01;;;;;;;4.78;2.85;;;;;;;12.01;nan;100363.84;4964268;28;20717;-85
2022/12/26 02:12:32;;;;;;;5.10;2.65;;;;;;;12.03;nan;100376.91;4969413;28;20057;-85
2022/12/26 02:14:58;;;;;;;5.55;2.83;;;;;;;12.02;nan;100375.28;4962954;28;20058;-85
2022/12/26 02:17:25;;;;;;;7.78;2.85;;;;;;;12.03;nan;100384.88;4969500;28;20039;-85
2022/12/26 02:20:11;;;;;;;6.47;2.70;;;;;;;12.01;nan;100384.19;4969345;28;20515;-85
2022/12/26 02:23:21;;;;;;;3.45;2.28;;;;;;;12.05;nan;100414.69;4968545;28;20099;-85
2022/12/26 02:26:29;;;;;;;3.83;2.42;;;;;;;12.02;nan;100420.31;4967566;28;20703;-86
2022/12/26 02:29:26;;;;;;;5.50;2.95;;;;;;;12.00;nan;100409.06;4972030;28;20138;-85
2022/12/26 02:32:02;;;;;;;5.10;2.50;;;;;;;12.01;nan;100395.66;4973615;28;20365;-86
2022/12/26 02:34:39;;;;;;;3.92;2.70;;;;;;;12.01;nan;100408.06;4955365;28;20039;-85
2022/12/26 02:37:19;;;;;;;4.18;2.92;;;;;;;11.98;nan;100405.75;4971789;28;20046;-86
2022/12/26 02:40:16;;;;;;;3.47;2.50;;;;;;;11.90;nan;100404.75;4971389;28;20035;-85
2022/12/26 02:43:13;;;;;;;5.65;2.67;;;;;;;11.87;nan;100394.47;4966118;28;20051;-87
2022/12/26 02:48:48;;;;;;;4.50;2.55;;;;;;;11.81;nan;100410.97;4972952;28;20038;-85
2022/12/26 03:13:09;;;;;;;4.63;2.50;;;;;;;11.71;nan;100417.44;4972467;28;20548;-86
2022/12/26 03:14:43;;;;;;;4.45;2.88;;;;;;;11.79;nan;100393.59;4953139;28;20037;-85
2022/12/26 03:17:21;;;;;;;3.67;2.65;;;;;;;11.82;nan;100396.75;4962191;28;20034;-85
2022/12/26 03:20:00;;;;;;;4.05;2.80;;;;;;;11.86;nan;100395.41;4971960;28;20039;-85
2022/12/26 03:22:33;;;;;;;5.60;2.28;;;;;;;11.86;nan;100398.06;4971297;28;20090;-85
2022/12/26 03:27:46;;;;;;;4.45;2.58;;;;;;;11.86;nan;100398.06;4973092;28;20038;-84
2022/12/26 03:36:04;;;;;;;5.22;2.65;;;;;;;11.95;nan;100361.03;4973824;28;20038;-86
2022/12/26 03:38:56;;;;;;;4.55;2.70;;;;;;;11.96;nan;100349.41;4962327;28;20058;-86
2022/12/26 04:19:57;;;;;;;4.43;2.27;;;;;;;12.09;nan;100408.91;4971100;28;20058;-86
2022/12/26 04:45:54;;;;;;;5.15;2.70;;;;;;;12.03;nan;100406.91;4965176;28;20137;-86
2022/12/26 04:51:04;;;;;;;3.58;2.30;;;;;;;12.06;nan;100403.09;4963731;28;20038;-86
2022/12/26 04:53:29;;;;;;;3.55;2.70;;;;;;;12.05;nan;100396.97;4971374;28;20556;-86
2022/12/26 04:55:54;;;;;;;5.60;2.78;;;;;;;12.05;nan;100409.38;4971912;28;20062;-86
2022/12/26 04:58:23;;;;;;;4.25;2.50;;;;;;;12.04;nan;100407.75;4971493;28;20039;-86
2022/12/26 05:00:48;;;;;;;5.10;2.67;;;;;;;12.03;nan;100416.66;4972376;28;20035;-86
2022/12/26 05:11:30;;;;;;;6.55;2.70;;;;;;;12.01;nan;100424.81;4971849;28;20038;-85
2022/12/26 05:13:57;;;;;;;5.40;2.63;;;;;;;12.02;nan;100429.09;4971824;28;20109;-86
2022/12/26 05:30:20;;;;;;;5.90;2.53;;;;;;;11.99;nan;100425.94;4969660;28;20045;-85
2022/12/26 05:35:30;;;;;;;4.50;2.47;;;;;;;11.98;nan;100427.75;4968131;28;20106;-86
2022/12/26 05:37:56;;;;;;;3.53;2.38;;;;;;;12.00;nan;100430.25;4969419;28;20066;-86
2022/12/26 05:40:21;;;;;;;3.95;2.35;;;;;;;11.99;nan;100432.09;4967274;28;20050;-86
2022/12/26 05:42:46;;;;;;;3.78;2.35;;;;;;;11.99;nan;100437.38;4968727;28;20428;-86
2022/12/26 05:45:11;;;;;;;5.07;2.42;;;;;;;11.99;nan;100426.78;4980569;28;20078;-87
2022/12/26 05:47:37;;;;;;;3.88;2.70;;;;;;;11.98;nan;100424.28;4988412;28;20026;-86
2022/12/26 05:50:03;;;;;;;6.25;2.47;;;;;;;11.99;nan;100424.13;4990360;28;20058;-89
2022/12/26 05:52:28;;;;;;;3.95;2.60;;;;;;;12.00;nan;100417.00;4992159;28;20038;-86
2022/12/26 05:54:53;;;;;;;4.18;2.30;;;;;;;11.99;nan;100417.97;4990216;28;20043;-86
2022/12/26 05:57:19;;;;;;;4.13;2.80;;;;;;;12.05;nan;100420.81;4992224;28;20055;-85
2022/12/26 05:59:44;;;;;;;4.50;2.53;;;;;;;12.07;nan;100418.00;4993950;28;20031;-86
2022/12/26 06:02:09;;;;;;;4.63;2.80;;;;;;;12.09;nan;100411.56;4992934;28;20047;-86
2022/12/26 06:04:35;;;;;;;4.35;2.65;;;;;;;12.13;nan;100425.28;4993534;28;20266;-87
2022/12/26 06:07:01;;;;;;;3.63;2.50;;;;;;;12.12;nan;100410.38;4993776;28;20101;-84
2022/12/26 06:09:26;;;;;;;7.00;2.97;;;;;;;12.15;nan;100407.41;4982852;28;20039;-86
2022/12/26 06:11:52;;;;;;;5.40;2.47;;;;;;;12.17;nan;100404.59;4971669;28;20042;-85
2022/12/26 06:14:17;;;;;;;4.22;2.65;;;;;;;12.16;nan;100403.78;4966973;28;20497;-86
2022/12/26 06:16:42;;;;;;;3.85;2.67;;;;;;;12.17;nan;100413.38;4969150;28;20035;-85
2022/12/26 06:19:07;;;;;;;4.72;2.58;;;;;;;12.16;nan;100418.84;4970713;28;20114;-87
2022/12/26 06:21:33;;;;;;;6.60;2.75;;;;;;;12.14;nan;100420.84;4970239;28;20405;-86
2022/12/26 06:23:58;;;;;;;4.63;2.78;;;;;;;12.14;nan;100423.50;4972907;28;20074;-85
2022/12/26 06:26:24;;;;;;;6.00;2.58;;;;;;;12.14;nan;100423.50;4970965;28;20662;-85
2022/12/26 06:28:50;;;;;;;4.07;2.40;;;;;;;12.14;nan;100412.88;4972804;28;20041;-86
2022/12/26 06:31:19;;;;;;;4.50;2.38;;;;;;;12.10;nan;100421.16;4973060;28;20035;-85
2022/12/26 06:33:45;;;;;;;5.10;2.95;;;;;;;12.10;nan;100421.16;4968112;28;20036;-85
2022/12/26 06:36:14;;;;;;;4.28;2.60;;;;;;;12.06;nan;100413.69;4970428;28;20041;-85
2022/12/26 06:38:40;;;;;;;5.55;2.80;;;;;;;12.05;nan;100427.94;4973675;28;20400;-85
2022/12/26 06:41:07;;;;;;;4.97;2.58;;;;;;;12.00;nan;100431.09;4973506;28;20401;-85
2022/12/26 06:43:33;;;;;;;5.20;2.30;;;;;;;11.99;nan;100428.59;4970921;28;20038;-85
2022/12/26 06:46:00;;;;;;;4.53;2.58;;;;;;;11.96;nan;100434.22;4968273;28;20077;-85
2022/12/26 06:48:26;;;;;;;5.45;2.72;;;;;;;11.94;nan;100434.41;4968669;28;20050;-85
2022/12/26 06:50:53;;;;;;;4.53;2.70;;;;;;;11.92;nan;100441.69;4969341;28;20117;-86
2022/12/26 06:53:19;;;;;;;5.20;2.70;;;;;;;11.91;nan;100447.94;4980737;28;20042;-86
2022/12/26 06:55:44;;;;;;;4.40;2.40;;;;;;;11.87;nan;100446.63;4951171;28;20064;-87
2022/12/26 06:58:09;;;;;;;5.90;2.88;;;;;;;11.77;nan;100446.72;4959487;28;20069;-85
2022/12/26 07:00:35;;;;;;;4.57;2.60;;;;;;;11.58;nan;100461.06;4969754;28;20031;-85
2022/12/26 07:03:00;;;;;;;3.95;2.63;;;;;;;11.33;nan;100461.97;4969689;28;20325;-85
2022/12/26 07:05:26;;;;;;;5.15;2.95;;;;;;;11.13;nan;100462.19;4970308;28;20034;-86
2022/12/26 07:07:51;;;;;;;4.32;3.00;;;;;;;11.01;nan;100469.56;4973561;28;20078;-87
2022/12/26 07:10:18;;;;;;;7.80;2.80;;;;;;;10.93;nan;100461.56;4977966;28;20077;-86
2022/12/26 07:12:43;;;;;;;5.40;2.97;;;;;;;10.85;nan;100466.81;4973516;28;20047;-86
2022/12/26 07:15:10;;;;;;;4.85;2.92;;;;;;;10.80;nan;100469.94;4973595;28;20039;-86
2022/12/26 07:17:36;;;;;;;4.95;2.97;;;;;;;10.73;nan;100471.53;4972147;28;20031;-87
2022/12/26 07:20:02;;;;;;;4.50;3.10;;;;;;;10.71;nan;100477.97;4969929;28;20050;-85
2022/12/26 07:22:28;;;;;;;5.78;3.10;;;;;;;10.66;nan;100470.47;4970380;28;20448;-86
2022/12/26 07:24:53;;;;;;;5.13;3.15;;;;;;;10.62;nan;100464.66;4969982;28;20043;-85
2022/12/26 07:27:18;;;;;;;5.18;2.70;;;;;;;10.58;nan;100473.91;4970353;28;20126;-85
2022/12/26 07:29:43;;;;;;;4.35;2.88;;;;;;;10.56;nan;100469.75;4970652;28;20039;-85
2022/12/26 07:32:09;;;;;;;4.63;3.30;;;;;;;10.54;nan;100477.00;4971772;28;20105;-85
2022/12/26 07:34:34;;;;;;;6.35;3.33;;;;;;;10.52;nan;100473.69;4972282;28;20499;-85
2022/12/26 07:36:59;;;;;;;5.00;3.17;;;;;;;10.51;nan;100472.84;4970559;28;20041;-85
2022/12/26 07:39:25;;;;;;;4.82;3.20;;;;;;;10.52;nan;100478.97;4971005;28;20074;-85
2022/12/26 07:41:56;;;;;;;4.25;3.08;;;;;;;10.50;nan;100483.56;4971466;28;20768;-84
2022/12/26 07:44:22;;;;;;;5.28;3.30;;;;;;;10.52;nan;100478.97;4971696;28;20042;-85
2022/12/26 07:46:48;;;;;;;5.25;3.30;;;;;;;10.56;nan;100483.78;4972921;28;20034;-85
2022/12/26 07:49:13;;;;;;;4.43;3.00;;;;;;;10.65;nan;100489.97;4971786;28;20693;-84
2022/12/26 07:51:40;;;;;;;6.03;3.22;;;;;;;10.72;nan;100485.72;4974010;28;20135;-85
2022/12/26 07:54:05;;;;;;;4.65;3.03;;;;;;;10.78;nan;100490.41;4974304;28;20047;-84
2022/12/26 07:56:31;;;;;;;6.68;3.58;;;;;;;10.84;nan;100475.72;4976996;28;20045;-84
2022/12/26 07:58:56;;;;;;;5.45;3.03;;;;;;;10.87;nan;100469.28;4973187;28;20125;-85
2022/12/26 08:01:21;;;;;;;3.90;2.90;;;;;;;10.93;nan;100481.91;4970478;28;20063;-85
2022/12/26 08:03:48;;;;;;;6.38;3.47;;;;;;;10.94;nan;100476.47;4971030;28;20109;-84
2022/12/26 08:06:13;;;;;;;4.03;3.00;;;;;;;10.95;nan;100479.94;4969199;28;20039;-85
2022/12/26 08:08:39;;;;;;;6.55;3.40;;;;;;;10.95;nan;100486.06;4971758;28;20053;-85
2022/12/26 08:11:06;;;;;;;5.65;3.00;;;;;;;10.98;nan;100495.50;4972155;28;20054;-84
2022/12/26 08:13:32;;;;;;;5.00;3.45;;;;;;;11.00;nan;100504.13;4971266;28;20057;-85
2022/12/26 08:15:58;;;;;;;5.40;2.88;;;;;;;10.94;nan;100513.50;4972791;28;20038;-85
2022/12/26 08:18:24;;;;;;;5.15;3.08;;;;;;;10.92;nan;100512.00;4968528;28;20511;-85
2022/12/26 08:20:49;;;;;;;5.45;2.72;;;;;;;10.97;nan;100520.31;4972771;28;20043;-85
2022/12/26 08:23:15;;;;;;;6.25;3.25;;;;;;;11.01;nan;100524.28;4971872;28;20062;-85
2022/12/26 08:25:41;;;;;;;5.93;3.30;;;;;;;10.99;nan;100532.41;4972271;28;20059;-86
2022/12/26 08:28:06;;;;;;;4.63;2.90;;;;;;;10.88;nan;100526.53;4967452;28;20034;-86
2022/12/26 08:30:31;;;;;;;6.55;3.38;;;;;;;10.77;nan;100531.06;4968714;28;20651;-87
2022/12/26 08:32:56;;;;;;;5.57;3.53;;;;;;;10.72;nan;100528.03;4970655;28;20097;-86
2022/12/26 08:35:22;;;;;;;6.55;3.85;;;;;;;10.64;nan;100525.34;4967824;28;20114;-86
2022/12/26 08:37:47;;;;;;;6.72;3.75;;;;;;;10.62;nan;100536.06;4970566;28;20085;-86
2022/12/26 08:40:12;;;;;;;5.18;3.53;;;;;;;10.60;nan;100553.88;4974001;28;20129;-86
2022/12/26 08:42:38;;;;;;;5.30;3.15;;;;;;;10.56;nan;100557.84;4972672;28;20031;-86
2022/12/26 08:45:03;;;;;;;5.50;3.22;;;;;;;10.56;nan;100554.38;4974893;28;20027;-86
2022/12/26 08:47:28;;;;;;;7.78;3.60;;;;;;;10.53;nan;100565.22;4975301;28;20650;-85
2022/12/26 08:49:54;;;;;;;5.75;3.70;;;;;;;10.49;nan;100564.69;4961074;28;20097;-86
2022/12/26 08:52:19;;;;;;;7.63;3.75;;;;;;;10.48;nan;100564.84;4976996;28;20031;-85
2022/12/26 08:54:44;;;;;;;6.82;3.88;;;;;;;10.47;nan;100571.94;4975892;28;20115;-85
2022/12/26 08:57:10;;;;;;;6.47;3.75;;;;;;;10.47;nan;100560.56;4978531;28;20049;-85
2022/12/26 08:59:35;;;;;;;5.22;3.72;;;;;;;10.44;nan;100553.75;4976121;28;20038;-85
2022/12/26 09:02:00;;;;;;;6.25;3.83;;;;;;;10.46;nan;100553.59;4977308;28;20062;-85
2022/12/26 09:04:25;;;;;;;7.53;4.25;;;;;;;10.47;nan;100549.97;4975776;28;20109;-85
2022/12/26 09:06:51;;;;;;;7.13;3.92;;;;;;;10.47;nan;100544.69;4978669;28;20042;-84
2022/12/26 09:09:16;;;;;;;7.80;4.00;;;;;;;10.44;nan;100535.25;4980775;28;20062;-85
2022/12/26 09:11:41;;;;;;;6.40;3.72;;;;;;;10.46;nan;100513.94;4980392;28;20070;-84
2022/12/26 09:14:07;;;;;;;7.97;4.10;;;;;;;10.44;nan;100507.97;4976176;28;20133;-84
2022/12/26 09:16:41;;;;;;;5.60;3.85;;;;;;;10.44;nan;100527.31;4976745;28;20031;-84
2022/12/26 09:19:08;;;;;;;6.80;3.95;;;;;;;10.47;nan;100534.13;4975360;28;20106;-85
2022/12/26 09:21:34;;;;;;;6.85;3.70;;;;;;;10.46;nan;100540.38;4974675;28;20042;-85
2022/12/26 09:24:02;;;;;;;6.15;4.05;;;;;;;10.47;nan;100565.84;4975465;28;20039;-84
2022/12/26 09:26:28;;;;;;;5.50;3.70;;;;;;;10.50;nan;100576.09;4975527;28;20038;-84
2022/12/26 09:28:53;;;;;;;7.63;3.85;;;;;;;10.51;nan;100591.81;4974094;28;20041;-84
2022/12/26 09:31:24;;;;;;;5.70;3.58;;;;;;;10.55;nan;100602.91;4969171;28;22045;-83
2022/12/26 09:33:50;;;;;;;4.65;3.28;;;;;;;10.56;nan;100596.66;4975735;28;20193;-84
2022/12/26 09:36:18;;;;;;;5.28;3.40;;;;;;;10.56;nan;100597.50;4974786;28;20051;-84
2022/12/26 09:38:45;;;;;;;6.05;3.05;;;;;;;10.62;nan;100588.13;4974019;28;20096;-84
2022/12/26 09:41:41;;;;;;;4.90;2.85;;;;;;;10.69;nan;100583.88;4975749;28;20107;-84
2022/12/26 09:44:20;;;;;;;5.75;3.25;;;;;;;10.75;nan;100582.44;4972062;28;20058;-84
2022/12/26 09:47:17;;;;;;;4.75;3.10;;;;;;;10.79;nan;100568.75;4983673;28;20035;-84
2022/12/26 09:49:56;;;;;;;4.22;3.25;;;;;;;10.80;nan;100602.19;4972296;28;20045;-84
2022/12/26 09:52:40;;;;;;;4.95;3.10;;;;;;;10.86;nan;100626.38;4974560;28;20057;-84
2022/12/26 09:55:34;;;;;;;5.32;3.03;;;;;;;10.89;nan;100647.22;4976494;28;20092;-85
2022/12/26 09:58:07;;;;;;;5.43;3.22;;;;;;;10.93;nan;100648.59;4974590;28;20046;-84
2022/12/26 10:00:42;;;;;;;5.45;3.40;;;;;;;10.97;nan;100634.09;4973630;28;20038;-85
2022/12/26 10:03:09;;;;;;;5.35;3.30;;;;;;;10.96;nan;100641.16;4965522;28;20085;-85
2022/12/26 10:06:00;;;;;;;5.22;3.30;;;;;;;11.01;nan;100643.34;4969561;28;20507;-84
2022/12/26 10:09:19;;;;;;;6.30;3.42;;;;;;;11.04;nan;100630.66;4968277;28;20081;-87
2022/12/26 10:12:02;;;;;;;6.10;3.33;;;;;;;11.09;nan;100614.34;4985257;28;20046;-85
2022/12/26 10:14:58;;;;;;;6.78;3.60;;;;;;;11.15;nan;100594.34;4980900;28;20090;-84
2022/12/26 10:17:36;;;;;;;4.50;2.92;;;;;;;11.18;nan;100612.59;4981898;28;20385;-85
2022/12/26 10:20:36;;;;;;;5.53;3.05;;;;;;;11.19;nan;100619.53;4969825;28;20034;-85
2022/12/26 10:23:23;;;;;;;6.73;3.20;;;;;;;11.16;nan;100630.44;4955367;28;20043;-84
2022/12/26 10:26:02;;;;;;;6.20;2.90;;;;;;;11.13;nan;100636.03;4965055;28;20286;-84
2022/12/26 10:29:06;;;;;;;5.78;3.20;;;;;;;11.13;nan;100626.28;4975735;28;20038;-84
2022/12/26 10:31:58;;;;;;;4.25;2.60;;;;;;;11.15;nan;100642.81;4969564;28;20055;-84
2022/12/26 10:34:30;;;;;;;5.18;3.05;;;;;;;11.18;nan;100636.41;4970610;28;20038;-84
2022/12/26 10:37:11;;;;;;;5.00;2.67;;;;;;;11.19;nan;100619.53;4989651;28;20047;-84
2022/12/26 10:39:53;;;;;;;5.47;2.70;;;;;;;11.22;nan;100620.03;4972728;28;20408;-84
2022/12/26 10:42:37;;;;;;;4.25;2.60;;;;;;;11.22;nan;100625.34;4973428;28;20046;-85
2022/12/26 10:45:13;;;;;;;4.93;2.78;;;;;;;11.21;nan;100633.47;4973361;28;20130;-86
2022/12/26 10:47:41;;;;;;;3.88;2.60;;;;;;;11.21;nan;100636.94;4977987;28;20038;-85
2022/12/26 10:50:17;;;;;;;4.22;2.67;;;;;;;11.21;nan;100633.47;4978756;28;20119;-87
2022/12/26 10:52:43;;;;;;;5.43;2.75;;;;;;;11.20;nan;100626.47;4975374;28;20465;-83
2022/12/26 10:55:13;;;;;;;3.88;2.63;;;;;;;11.24;nan;100633.97;4974321;28;20059;-83
2022/12/26 10:57:41;;;;;;;3.60;2.50;;;;;;;11.31;nan;100638.66;4970678;28;20089;-83
2022/12/26 11:00:25;;;;;;;4.28;2.80;;;;;;;11.31;nan;100633.38;4980778;28;20405;-82
2022/12/26 11:03:12;;;;;;;4.13;2.70;;;;;;;11.31;nan;100628.06;4968538;28;20046;-82
2022/12/26 11:05:43;;;;;;;4.25;2.70;;;;;;;11.32;nan;100632.38;4976589;28;20035;-84
2022/12/26 11:08:31;;;;;;;4.03;2.47;;;;;;;11.32;nan;100630.56;4975917;28;20035;-85
2022/12/26 11:11:13;;;;;;;4.00;2.75;;;;;;;11.29;nan;100625.56;4975822;28;20093;-85
2022/12/26 11:14:02;;;;;;;6.22;2.90;;;;;;;11.30;nan;100618.44;4968751;28;20062;-85
2022/12/26 11:16:31;;;;;;;7.03;3.83;;;;;;;11.28;nan;100631.84;4973568;28;20124;-85
2022/12/26 11:18:57;;;;;;;4.60;3.17;;;;;;;11.22;nan;100632.47;4972847;28;20128;-85
2022/12/26 11:21:24;;;;;;;4.55;2.67;;;;;;;11.28;nan;100629.22;4972305;28;20034;-85
2022/12/26 11:23:51;;;;;;;3.78;2.53;;;;;;;11.37;nan;100630.94;4973297;28;20042;-86
2022/12/26 11:26:26;;;;;;;5.15;3.08;;;;;;;11.47;nan;100630.84;4971764;28;20121;-85
2022/12/26 11:29:14;;;;;;;3.85;2.72;;;;;;;11.47;nan;100618.41;4970580;28;20039;-85
2022/12/26 11:31:42;;;;;;;5.07;3.20;;;;;;;11.47;nan;100622.91;4964966;28;20031;-85
2022/12/26 11:34:18;;;;;;;4.68;2.90;;;;;;;11.45;nan;100630.16;4970371;28;20035;-86
2022/12/26 11:36:48;;;;;;;4.25;2.28;;;;;;;11.42;nan;100625.19;4968149;28;20030;-85
2022/12/26 11:39:36;;;;;;;4.40;2.42;;;;;;;11.41;nan;100623.50;4972230;28;20042;-86
2022/12/26 11:42:18;;;;;;;5.90;2.67;;;;;;;11.47;nan;100626.38;4970650;28;20035;-86
2022/12/26 11:44:48;;;;;;;3.60;2.63;;;;;;;11.53;nan;100622.25;4987178;28;20043;-85
2022/12/26 11:47:21;;;;;;;3.30;2.20;;;;;;;11.60;nan;100614.53;4929603;28;1142407;-85
2022/12/26 11:50:08;;;;;;;3.53;2.33;;;;;;;11.71;nan;100624.03;4972950;28;20031;-85
2022/12/26 11:52:50;;;;;;;4.88;2.58;;;;;;;11.77;nan;100624.22;4970955;28;20047;-85
2022/12/26 11:55:21;;;;;;;4.28;2.45;;;;;;;11.85;nan;100618.97;4986902;28;20067;-85
2022/12/26 11:58:09;;;;;;;3.00;2.20;;;;;;;12.00;nan;100619.25;4982769;28;20528;-85
2022/12/26 12:01:01;;;;;;;3.10;2.28;;;;;;;12.32;nan;100612.41;4972395;28;20067;-83
2022/12/26 12:03:36;;;;;;;4.00;2.40;;;;;;;12.57;nan;100615.97;4969836;28;20045;-84
2022/12/26 12:06:05;;;;;;;3.95;2.28;;;;;;;12.66;nan;100636.22;4973702;28;20154;-83
2022/12/26 12:08:36;;;;;;;3.17;2.03;;;;;;;12.67;nan;100637.84;4975005;28;20035;-84
2022/12/26 12:11:24;;;;;;;3.47;2.10;;;;;;;12.64;nan;100627.56;4975238;28;20053;-85
2022/12/26 12:14:08;;;;;;;2.90;2.10;;;;;;;12.53;nan;100627.88;4977236;28;20452;-85
2022/12/26 12:16:46;;;;;;;3.72;2.20;;;;;;;12.43;nan;100619.25;4969239;28;20045;-85
2022/12/26 12:19:38;;;;;;;2.95;1.80;;;;;;;12.36;nan;100613.75;4970708;28;20525;-85
2022/12/26 12:22:17;;;;;;;4.82;2.00;;;;;;;12.33;nan;100611.41;4971457;28;20066;-86
2022/12/26 12:24:56;;;;;;;4.53;2.30;;;;;;;12.32;nan;100615.91;4970493;28;20067;-85
2022/12/26 12:27:30;;;;;;;3.92;2.20;;;;;;;12.27;nan;100615.53;4971962;28;20041;-87
2022/12/26 12:30:27;;;;;;;3.55;2.40;;;;;;;12.20;nan;100606.56;4968811;28;20460;-88
2022/12/26 12:33:17;;;;;;;4.10;2.17;;;;;;;12.17;nan;100603.41;4969757;28;20054;-86
2022/12/26 12:36:06;;;;;;;3.50;2.53;;;;;;;12.06;nan;100600.06;4966025;28;20031;-87
2022/12/26 12:38:40;;;;;;;3.97;2.42;;;;;;;12.02;nan;100598.72;4971324;28;20058;-87
2022/12/26 12:41:16;;;;;;;3.35;2.53;;;;;;;12.02;nan;100598.72;4969801;28;20031;-86
2022/12/26 12:43:48;;;;;;;3.53;2.30;;;;;;;12.02;nan;100596.06;4969107;28;20584;-86
2022/12/26 12:46:38;;;;;;;4.00;2.40;;;;;;;12.03;nan;100589.75;4968910;28;20041;-87
2022/12/26 12:49:28;;;;;;;3.15;2.25;;;;;;;12.00;nan;100587.44;4971441;28;20054;-86
2022/12/26 12:52:00;;;;;;;4.63;2.05;;;;;;;11.98;nan;100585.94;4969514;28;20035;-88
2022/12/26 12:55:07;;;;;;;4.22;2.33;;;;;;;11.89;nan;100596.53;4971436;28;20059;-87
2022/12/26 12:57:41;;;;;;;3.45;2.42;;;;;;;11.83;nan;100604.22;4990646;28;20053;-87
2022/12/26 13:00:10;;;;;;;3.35;2.30;;;;;;;11.83;nan;100605.06;4987989;28;20389;-87
2022/12/26 13:02:45;;;;;;;3.53;2.38;;;;;;;11.82;nan;100599.91;4979759;28;20035;-87
2022/12/26 13:05:21;;;;;;;3.53;2.20;;;;;;;11.82;nan;100590.16;4972675;28;20470;-86
2022/12/26 13:07:55;;;;;;;3.95;2.22;;;;;;;11.80;nan;100601.91;4972087;28;20035;-87
2022/12/26 13:10:34;;;;;;;3.63;2.50;;;;;;;11.76;nan;100596.06;4975919;28;20031;-87
2022/12/26 13:13:14;;;;;;;3.72;2.20;;;;;;;11.72;nan;100594.72;4971360;28;20421;-87
2022/12/26 13:15:45;;;;;;;3.15;2.10;;;;;;;11.73;nan;100593.75;4974715;28;20045;-88
2022/12/26 13:18:14;;;;;;;;;;;;;;;11.73;nan;100591.09;4971256;28;20509;-88
2022/12/26 13:20:43;;;;;;;4.28;2.50;;;;;;;11.72;nan;100599.19;4966660;28;19922;-88
2022/12/26 13:26:10;;;;;;;3.53;2.20;;;;;;;11.56;nan;100584.03;4970300;28;20042;-88
2022/12/26 13:28:46;;;;;;;4.15;2.45;;;;;;;11.65;nan;100591.88;4955291;28;20501;-87
2022/12/26 13:31:12;;;;;;;4.57;2.30;;;;;;;11.72;nan;100589.44;4970115;28;20038;-87
2022/12/26 13:33:41;;;;;;;4.13;2.38;;;;;;;11.81;nan;100592.97;4968172;28;20042;-86
2022/12/26 13:36:06;;;;;;;3.35;2.08;;;;;;;11.86;nan;100578.22;4969514;28;20069;-87
2022/12/26 13:38:50;;;;;;;3.60;2.55;;;;;;;11.89;nan;100587.72;4970360;28;20058;-86
2022/12/26 13:44:25;;;;;;;4.20;2.40;;;;;;;11.85;nan;100573.13;4968715;28;20105;-86
2022/12/26 13:46:50;;;;;;;3.08;2.08;;;;;;;11.85;nan;100566.00;4967337;28;20808;-87
2022/12/26 13:49:40;;;;;;;3.10;2.00;;;;;;;11.83;nan;100565.31;4971588;28;20042;-87
2022/12/26 13:52:13;;;;;;;4.50;2.40;;;;;;;11.82;nan;100562.81;4963946;28;20034;-86
2022/12/26 13:54:51;;;;;;;3.17;1.85;;;;;;;11.79;nan;100563.97;4968152;28;20058;-86
2022/12/26 13:57:39;;;;;;;3.92;2.00;;;;;;;11.78;nan;100564.13;4970958;28;20051;-86
2022/12/26 14:00:21;;;;;;;4.35;2.20;;;;;;;11.79;nan;100558.66;4968774;28;20042;-87
2022/12/26 14:02:55;;;;;;;3.78;1.95;;;;;;;11.80;nan;100562.16;4961507;28;20035;-87
2022/12/26 14:05:42;;;;;;;4.18;2.10;;;;;;;11.77;nan;100571.22;4969425;28;20043;-86
2022/12/26 14:08:34;;;;;;;3.05;1.80;;;;;;;11.73;nan;100559.31;4967463;28;20035;-87
2022/12/26 14:11:34;;;;;;;3.42;2.00;;;;;;;11.69;nan;100550.84;4965586;28;20093;-87
2022/12/26 14:14:05;;;;;;;3.60;2.10;;;;;;;11.68;nan;100556.31;4964221;28;20077;-87
2022/12/26 14:16:53;;;;;;;3.20;2.08;;;;;;;11.65;nan;100552.13;4967245;28;20054;-87